Strona główna
METAR-TAF:

METAR-TAF

Lotnisko :

Port Hawkesbury, Nowa Szkocja, Kanada

Szerokość geograficzna: 45-40N, Długość geograficzna: 061-23W, wysokość: 114 m

Aktualna obserwacja pogody

Raport powstał 1 godzina i 6 minut temu, godzina 16:00 UTC
Wiatr 14 kt od zachodnio-północny zachód w porywach dochodzący do 19 kt
Temperatura -6°C
Wilgotność 68%
Ciśnienie 1025 hPa
Widzialność: 14.5 km
Przerywane chmury na wysokości 2700 ft
Zachmurzenie całkowite na wysokości 3300 ft

METAR: CYPD 081600Z AUTO 29014G19KT 9SM BKN027 OVC033 M06/M11 A3028 RMK SLP262

czas: 13:06 (17:06 UTC)


TAF: brakujący

Obserwacja i prognoza pogody dla ponad 4000 lotnisk (raport METAR i TAF).

Dostępne stacje oznaczono żółtymi i czerwonymi punktami na mapie.

Najedź kursorem aby zobaczyć nazwę stacji.

Kliknij aby zobaczyć obserwacje i prognozy pogody.

Aby zmienić mapę: kliknij na zielony przycisk z czarnym krzyżykiem, aby powiększyć; na zielony przycisk z myślnikiem, aby pomniejszyć; na zielone strzałki, aby przejść do map sąsiednich.


METAR-TAF: